sensor_id;sensor_type;location;lat;lon;timestamp;temperature;humidity
1702;DHT22;848;48.354;10.064;2023-12-04T00:00:23;-5.00;99.90
1702;DHT22;848;48.354;10.064;2023-12-04T00:02:49;-5.00;99.90
1702;DHT22;848;48.354;10.064;2023-12-04T00:05:16;-5.10;99.90
1702;DHT22;848;48.354;10.064;2023-12-04T00:07:43;-5.10;99.90
1702;DHT22;848;48.354;10.064;2023-12-04T00:10:10;-5.10;99.90
1702;DHT22;848;48.354;10.064;2023-12-04T00:12:37;-5.20;99.90
1702;DHT22;848;48.354;10.064;2023-12-04T00:15:07;-5.20;99.90
1702;DHT22;848;48.354;10.064;2023-12-04T00:17:34;-5.10;99.90
1702;DHT22;848;48.354;10.064;2023-12-04T00:20:06;-5.00;99.90
1702;DHT22;848;48.354;10.064;2023-12-04T00:22:33;-4.90;99.90
1702;DHT22;848;48.354;10.064;2023-12-04T00:25:00;-4.90;99.90
1702;DHT22;848;48.354;10.064;2023-12-04T00:27:27;-4.70;99.90
1702;DHT22;848;48.354;10.064;2023-12-04T00:29:54;-4.80;99.90
1702;DHT22;848;48.354;10.064;2023-12-04T00:32:23;-5.00;99.90
1702;DHT22;848;48.354;10.064;2023-12-04T00:34:51;-5.10;99.90
1702;DHT22;848;48.354;10.064;2023-12-04T00:37:18;-5.00;99.90
1702;DHT22;848;48.354;10.064;2023-12-04T00:39:45;-5.00;99.90
1702;DHT22;848;48.354;10.064;2023-12-04T00:42:12;-5.10;99.90
1702;DHT22;848;48.354;10.064;2023-12-04T00:44:39;-5.00;99.90
1702;DHT22;848;48.354;10.064;2023-12-04T00:47:06;-5.00;99.90
1702;DHT22;848;48.354;10.064;2023-12-04T00:49:34;-5.00;99.90
1702;DHT22;848;48.354;10.064;2023-12-04T00:52:01;-4.90;99.90
1702;DHT22;848;48.354;10.064;2023-12-04T00:54:28;-4.80;99.90
1702;DHT22;848;48.354;10.064;2023-12-04T00:56:54;-4.80;99.90
1702;DHT22;848;48.354;10.064;2023-12-04T00:59:21;-4.80;99.90
1702;DHT22;848;48.354;10.064;2023-12-04T01:01:48;-4.90;99.90
1702;DHT22;848;48.354;10.064;2023-12-04T01:04:15;-5.00;99.90
1702;DHT22;848;48.354;10.064;2023-12-04T01:06:43;-5.00;99.90
1702;DHT22;848;48.354;10.064;2023-12-04T01:09:10;-5.00;99.90
1702;DHT22;848;48.354;10.064;2023-12-04T01:11:37;-5.00;99.90
1702;DHT22;848;48.354;10.064;2023-12-04T01:14:04;-5.20;99.90
1702;DHT22;848;48.354;10.064;2023-12-04T01:16:31;-5.40;99.90
1702;DHT22;848;48.354;10.064;2023-12-04T01:18:58;-5.40;99.90
1702;DHT22;848;48.354;10.064;2023-12-04T01:21:25;-5.50;99.90
1702;DHT22;848;48.354;10.064;2023-12-04T01:23:53;-5.50;99.90
1702;DHT22;848;48.354;10.064;2023-12-04T01:26:22;-5.50;99.90
1702;DHT22;848;48.354;10.064;2023-12-04T01:28:49;-5.40;99.90
1702;DHT22;848;48.354;10.064;2023-12-04T01:31:16;-5.40;99.90
1702;DHT22;848;48.354;10.064;2023-12-04T01:33:42;-5.30;99.90
1702;DHT22;848;48.354;10.064;2023-12-04T01:36:10;-5.10;99.90
1702;DHT22;848;48.354;10.064;2023-12-04T01:38:37;-5.10;99.90
1702;DHT22;848;48.354;10.064;2023-12-04T01:41:06;-5.10;99.90
1702;DHT22;848;48.354;10.064;2023-12-04T01:43:33;-5.10;99.90
1702;DHT22;848;48.354;10.064;2023-12-04T01:46:01;-5.20;99.90
1702;DHT22;848;48.354;10.064;2023-12-04T01:48:28;-5.50;99.90
1702;DHT22;848;48.354;10.064;2023-12-04T01:50:55;-5.70;99.90
1702;DHT22;848;48.354;10.064;2023-12-04T01:53:24;-5.70;99.90
1702;DHT22;848;48.354;10.064;2023-12-04T01:55:51;-5.80;99.90
1702;DHT22;848;48.354;10.064;2023-12-04T01:58:20;-5.90;99.90
1702;DHT22;848;48.354;10.064;2023-12-04T02:00:47;-6.00;99.90
1702;DHT22;848;48.354;10.064;2023-12-04T02:03:14;-6.00;99.90
1702;DHT22;848;48.354;10.064;2023-12-04T02:05:44;-5.90;99.90
1702;DHT22;848;48.354;10.064;2023-12-04T02:08:11;-5.80;99.90
1702;DHT22;848;48.354;10.064;2023-12-04T02:10:38;-5.70;99.90
1702;DHT22;848;48.354;10.064;2023-12-04T02:13:05;-5.60;99.90
1702;DHT22;848;48.354;10.064;2023-12-04T02:15:34;-5.60;99.90
1702;DHT22;848;48.354;10.064;2023-12-04T02:18:01;-5.40;99.90
1702;DHT22;848;48.354;10.064;2023-12-04T02:20:31;-5.20;99.90
1702;DHT22;848;48.354;10.064;2023-12-04T02:22:58;-5.00;99.90
1702;DHT22;848;48.354;10.064;2023-12-04T02:25:27;-5.10;99.90
1702;DHT22;848;48.354;10.064;2023-12-04T02:27:56;-5.30;99.90
1702;DHT22;848;48.354;10.064;2023-12-04T02:30:25;-5.40;99.90
1702;DHT22;848;48.354;10.064;2023-12-04T02:32:54;-5.40;99.90
1702;DHT22;848;48.354;10.064;2023-12-04T02:35:23;-5.50;99.90
1702;DHT22;848;48.354;10.064;2023-12-04T02:37:51;-5.50;99.90
1702;DHT22;848;48.354;10.064;2023-12-04T02:40:19;-5.50;99.90
1702;DHT22;848;48.354;10.064;2023-12-04T02:42:50;-5.50;99.90
1702;DHT22;848;48.354;10.064;2023-12-04T02:45:17;-5.50;99.90
1702;DHT22;848;48.354;10.064;2023-12-04T02:47:44;-5.50;99.90
1702;DHT22;848;48.354;10.064;2023-12-04T02:50:11;-5.40;99.90
1702;DHT22;848;48.354;10.064;2023-12-04T02:52:37;-5.30;99.90
1702;DHT22;848;48.354;10.064;2023-12-04T02:55:05;-5.20;99.90
1702;DHT22;848;48.354;10.064;2023-12-04T02:57:32;-5.20;99.90
1702;DHT22;848;48.354;10.064;2023-12-04T03:00:00;-5.30;99.90
1702;DHT22;848;48.354;10.064;2023-12-04T03:02:28;-5.40;99.90
1702;DHT22;848;48.354;10.064;2023-12-04T03:04:55;-5.40;99.90
1702;DHT22;848;48.354;10.064;2023-12-04T03:07:24;-5.40;99.90
1702;DHT22;848;48.354;10.064;2023-12-04T03:09:52;-5.40;99.90
1702;DHT22;848;48.354;10.064;2023-12-04T03:12:18;-5.30;99.90
1702;DHT22;848;48.354;10.064;2023-12-04T03:14:45;-5.30;99.90
1702;DHT22;848;48.354;10.064;2023-12-04T03:17:14;-5.40;99.90
1702;DHT22;848;48.354;10.064;2023-12-04T03:19:40;-5.50;99.90
1702;DHT22;848;48.354;10.064;2023-12-04T03:22:07;-5.50;99.90
1702;DHT22;848;48.354;10.064;2023-12-04T03:24:34;-5.50;99.90
1702;DHT22;848;48.354;10.064;2023-12-04T03:27:01;-5.50;99.90
1702;DHT22;848;48.354;10.064;2023-12-04T03:29:28;-5.50;99.90
1702;DHT22;848;48.354;10.064;2023-12-04T03:31:55;-5.40;99.90
1702;DHT22;848;48.354;10.064;2023-12-04T03:34:22;-5.40;99.90
1702;DHT22;848;48.354;10.064;2023-12-04T03:36:49;-5.50;99.90
1702;DHT22;848;48.354;10.064;2023-12-04T03:39:16;-5.40;99.90
1702;DHT22;848;48.354;10.064;2023-12-04T03:41:43;-5.50;99.90
1702;DHT22;848;48.354;10.064;2023-12-04T03:44:10;-5.50;99.90
1702;DHT22;848;48.354;10.064;2023-12-04T03:46:37;-5.60;99.90
1702;DHT22;848;48.354;10.064;2023-12-04T03:49:05;-5.50;99.90
1702;DHT22;848;48.354;10.064;2023-12-04T03:51:33;-5.30;99.90
1702;DHT22;848;48.354;10.064;2023-12-04T03:54:00;-5.20;99.90
1702;DHT22;848;48.354;10.064;2023-12-04T03:56:27;-5.20;99.90
1702;DHT22;848;48.354;10.064;2023-12-04T03:58:53;-5.40;99.90
1702;DHT22;848;48.354;10.064;2023-12-04T04:01:20;-5.40;99.90
1702;DHT22;848;48.354;10.064;2023-12-04T04:03:47;-5.40;99.90
1702;DHT22;848;48.354;10.064;2023-12-04T04:06:14;-5.50;99.90
1702;DHT22;848;48.354;10.064;2023-12-04T04:08:42;-5.70;99.90
1702;DHT22;848;48.354;10.064;2023-12-04T04:11:09;-5.70;99.90
1702;DHT22;848;48.354;10.064;2023-12-04T04:15:58;-5.80;99.90
1702;DHT22;848;48.354;10.064;2023-12-04T04:18:25;-5.80;99.90
1702;DHT22;848;48.354;10.064;2023-12-04T04:20:52;-5.70;99.90
1702;DHT22;848;48.354;10.064;2023-12-04T04:23:18;-5.80;99.90
1702;DHT22;848;48.354;10.064;2023-12-04T04:25:45;-5.70;99.90
1702;DHT22;848;48.354;10.064;2023-12-04T04:28:12;-5.90;99.90
1702;DHT22;848;48.354;10.064;2023-12-04T04:30:38;-5.90;99.90
1702;DHT22;848;48.354;10.064;2023-12-04T04:33:07;-5.90;99.90
1702;DHT22;848;48.354;10.064;2023-12-04T04:35:34;-5.70;99.90
1702;DHT22;848;48.354;10.064;2023-12-04T04:38:01;-5.70;99.90
1702;DHT22;848;48.354;10.064;2023-12-04T04:40:27;-5.70;99.90
1702;DHT22;848;48.354;10.064;2023-12-04T04:42:54;-5.80;99.90
1702;DHT22;848;48.354;10.064;2023-12-04T04:45:21;-5.70;99.90
1702;DHT22;848;48.354;10.064;2023-12-04T04:47:48;-5.80;99.90
1702;DHT22;848;48.354;10.064;2023-12-04T04:50:19;-5.70;99.90
1702;DHT22;848;48.354;10.064;2023-12-04T04:52:46;-5.50;99.90
1702;DHT22;848;48.354;10.064;2023-12-04T04:55:13;-5.40;99.90
1702;DHT22;848;48.354;10.064;2023-12-04T04:57:40;-4.80;99.90
1702;DHT22;848;48.354;10.064;2023-12-04T05:00:07;-5.10;99.90
1702;DHT22;848;48.354;10.064;2023-12-04T05:02:34;-5.10;99.90
1702;DHT22;848;48.354;10.064;2023-12-04T05:05:03;-5.10;99.90
1702;DHT22;848;48.354;10.064;2023-12-04T05:07:32;-5.10;99.90
1702;DHT22;848;48.354;10.064;2023-12-04T05:09:58;-5.10;99.90
1702;DHT22;848;48.354;10.064;2023-12-04T05:12:25;-5.10;99.90
1702;DHT22;848;48.354;10.064;2023-12-04T05:14:52;-5.10;99.90
1702;DHT22;848;48.354;10.064;2023-12-04T05:17:19;-5.20;99.90
1702;DHT22;848;48.354;10.064;2023-12-04T05:19:46;-5.40;99.90
1702;DHT22;848;48.354;10.064;2023-12-04T05:22:13;-5.50;99.90
1702;DHT22;848;48.354;10.064;2023-12-04T05:24:41;-5.80;99.90
1702;DHT22;848;48.354;10.064;2023-12-04T05:27:08;-5.90;99.90
1702;DHT22;848;48.354;10.064;2023-12-04T05:29:34;-5.80;99.90
1702;DHT22;848;48.354;10.064;2023-12-04T05:32:01;-5.70;99.90
1702;DHT22;848;48.354;10.064;2023-12-04T05:34:28;-5.60;99.90
1702;DHT22;848;48.354;10.064;2023-12-04T05:36:55;-5.40;99.90
1702;DHT22;848;48.354;10.064;2023-12-04T05:39:22;-5.40;99.90
1702;DHT22;848;48.354;10.064;2023-12-04T05:41:50;-5.40;99.90
1702;DHT22;848;48.354;10.064;2023-12-04T05:44:17;-5.30;99.90
1702;DHT22;848;48.354;10.064;2023-12-04T05:46:44;-5.10;99.90
1702;DHT22;848;48.354;10.064;2023-12-04T05:49:11;-5.20;99.90
1702;DHT22;848;48.354;10.064;2023-12-04T05:51:37;-5.30;99.90
1702;DHT22;848;48.354;10.064;2023-12-04T05:54:04;-5.30;99.90
1702;DHT22;848;48.354;10.064;2023-12-04T05:56:31;-5.30;99.90
1702;DHT22;848;48.354;10.064;2023-12-04T05:58:59;-5.40;99.90
1702;DHT22;848;48.354;10.064;2023-12-04T06:01:27;-5.30;99.90
1702;DHT22;848;48.354;10.064;2023-12-04T06:03:54;-5.20;99.90
1702;DHT22;848;48.354;10.064;2023-12-04T06:06:21;-5.20;99.90
1702;DHT22;848;48.354;10.064;2023-12-04T06:08:48;-5.30;99.90
1702;DHT22;848;48.354;10.064;2023-12-04T06:11:14;-5.40;99.90
1702;DHT22;848;48.354;10.064;2023-12-04T06:13:41;-5.50;99.90
1702;DHT22;848;48.354;10.064;2023-12-04T06:16:10;-5.50;99.90
1702;DHT22;848;48.354;10.064;2023-12-04T06:18:37;-5.60;99.90
1702;DHT22;848;48.354;10.064;2023-12-04T06:21:04;-5.60;99.90
1702;DHT22;848;48.354;10.064;2023-12-04T06:23:32;-5.60;99.90
1702;DHT22;848;48.354;10.064;2023-12-04T06:26:00;-5.60;99.90
1702;DHT22;848;48.354;10.064;2023-12-04T06:28:27;-5.50;99.90
1702;DHT22;848;48.354;10.064;2023-12-04T06:30:54;-5.60;99.90
1702;DHT22;848;48.354;10.064;2023-12-04T06:33:23;-5.70;99.90
1702;DHT22;848;48.354;10.064;2023-12-04T06:35:51;-5.80;99.90
1702;DHT22;848;48.354;10.064;2023-12-04T06:38:19;-5.90;99.90
1702;DHT22;848;48.354;10.064;2023-12-04T06:40:50;-5.90;99.90
1702;DHT22;848;48.354;10.064;2023-12-04T06:43:17;-6.00;99.90
1702;DHT22;848;48.354;10.064;2023-12-04T06:45:45;-5.90;99.90
1702;DHT22;848;48.354;10.064;2023-12-04T06:48:13;-5.90;99.90
1702;DHT22;848;48.354;10.064;2023-12-04T06:50:41;-5.80;99.90
1702;DHT22;848;48.354;10.064;2023-12-04T06:53:08;-5.60;99.90
1702;DHT22;848;48.354;10.064;2023-12-04T06:55:35;-5.60;99.90
1702;DHT22;848;48.354;10.064;2023-12-04T06:58:02;-5.60;99.90
1702;DHT22;848;48.354;10.064;2023-12-04T07:00:30;-5.60;99.90
1702;DHT22;848;48.354;10.064;2023-12-04T07:02:57;-5.50;99.90
1702;DHT22;848;48.354;10.064;2023-12-04T07:05:24;-5.40;99.90
1702;DHT22;848;48.354;10.064;2023-12-04T07:07:52;-5.30;99.90
1702;DHT22;848;48.354;10.064;2023-12-04T07:10:19;-5.30;99.90
1702;DHT22;848;48.354;10.064;2023-12-04T07:12:46;-5.20;99.90
1702;DHT22;848;48.354;10.064;2023-12-04T07:15:13;-5.20;99.90
1702;DHT22;848;48.354;10.064;2023-12-04T07:17:39;-5.40;99.90
1702;DHT22;848;48.354;10.064;2023-12-04T07:20:07;-5.40;99.90
1702;DHT22;848;48.354;10.064;2023-12-04T07:22:34;-5.30;99.90
1702;DHT22;848;48.354;10.064;2023-12-04T07:25:02;-5.20;99.90
1702;DHT22;848;48.354;10.064;2023-12-04T07:27:29;-5.30;99.90
1702;DHT22;848;48.354;10.064;2023-12-04T07:29:56;-5.50;99.90
1702;DHT22;848;48.354;10.064;2023-12-04T07:32:23;-5.70;99.90
1702;DHT22;848;48.354;10.064;2023-12-04T07:34:50;-5.80;99.90
1702;DHT22;848;48.354;10.064;2023-12-04T07:37:17;-5.90;99.90
1702;DHT22;848;48.354;10.064;2023-12-04T07:39:43;-6.00;99.90
1702;DHT22;848;48.354;10.064;2023-12-04T07:42:13;-6.00;99.90
1702;DHT22;848;48.354;10.064;2023-12-04T07:44:39;-6.10;99.90
1702;DHT22;848;48.354;10.064;2023-12-04T07:47:06;-6.00;99.90
1702;DHT22;848;48.354;10.064;2023-12-04T07:49:33;-5.90;99.90
1702;DHT22;848;48.354;10.064;2023-12-04T07:52:00;-5.80;99.90
1702;DHT22;848;48.354;10.064;2023-12-04T07:54:27;-5.70;99.90
1702;DHT22;848;48.354;10.064;2023-12-04T07:56:54;-5.70;99.90
1702;DHT22;848;48.354;10.064;2023-12-04T07:59:23;-5.70;99.90
1702;DHT22;848;48.354;10.064;2023-12-04T08:01:49;-5.70;99.90
1702;DHT22;848;48.354;10.064;2023-12-04T08:04:16;-5.90;99.90
1702;DHT22;848;48.354;10.064;2023-12-04T08:06:43;-5.90;99.90
1702;DHT22;848;48.354;10.064;2023-12-04T08:09:13;-5.90;99.90
1702;DHT22;848;48.354;10.064;2023-12-04T08:11:40;-6.00;99.90
1702;DHT22;848;48.354;10.064;2023-12-04T08:14:06;-5.90;99.90
1702;DHT22;848;48.354;10.064;2023-12-04T08:16:35;-5.90;99.90
1702;DHT22;848;48.354;10.064;2023-12-04T08:19:02;-6.00;99.90
1702;DHT22;848;48.354;10.064;2023-12-04T08:21:28;-6.20;99.90
1702;DHT22;848;48.354;10.064;2023-12-04T08:23:55;-6.20;99.90
1702;DHT22;848;48.354;10.064;2023-12-04T08:26:22;-6.20;99.90
1702;DHT22;848;48.354;10.064;2023-12-04T08:28:49;-6.20;99.90
1702;DHT22;848;48.354;10.064;2023-12-04T08:31:16;-6.20;99.90
1702;DHT22;848;48.354;10.064;2023-12-04T08:33:45;-6.20;99.90
1702;DHT22;848;48.354;10.064;2023-12-04T08:36:12;-6.20;99.90
1702;DHT22;848;48.354;10.064;2023-12-04T08:38:39;-6.30;99.90
1702;DHT22;848;48.354;10.064;2023-12-04T08:41:06;-6.20;99.90
1702;DHT22;848;48.354;10.064;2023-12-04T08:43:33;-6.10;99.90
1702;DHT22;848;48.354;10.064;2023-12-04T08:46:00;-6.10;99.90
1702;DHT22;848;48.354;10.064;2023-12-04T08:48:27;-6.10;99.90
1702;DHT22;848;48.354;10.064;2023-12-04T08:50:55;-6.00;99.90
1702;DHT22;848;48.354;10.064;2023-12-04T08:53:22;-5.90;99.90
1702;DHT22;848;48.354;10.064;2023-12-04T08:55:49;-5.90;99.90
1702;DHT22;848;48.354;10.064;2023-12-04T08:58:17;-5.90;99.90
1702;DHT22;848;48.354;10.064;2023-12-04T09:00:44;-5.80;99.90
1702;DHT22;848;48.354;10.064;2023-12-04T09:03:11;-5.70;99.90
1702;DHT22;848;48.354;10.064;2023-12-04T09:05:38;-5.70;99.90
1702;DHT22;848;48.354;10.064;2023-12-04T09:08:06;-5.70;99.90
1702;DHT22;848;48.354;10.064;2023-12-04T09:10:33;-5.80;99.90
1702;DHT22;848;48.354;10.064;2023-12-04T09:13:00;-5.80;99.90
1702;DHT22;848;48.354;10.064;2023-12-04T09:15:27;-5.60;99.90
1702;DHT22;848;48.354;10.064;2023-12-04T09:17:54;-5.20;99.90
1702;DHT22;848;48.354;10.064;2023-12-04T09:20:21;-5.40;99.90
1702;DHT22;848;48.354;10.064;2023-12-04T09:22:47;-5.30;99.90
1702;DHT22;848;48.354;10.064;2023-12-04T09:25:16;-5.40;99.90
1702;DHT22;848;48.354;10.064;2023-12-04T09:27:43;-5.20;99.90
1702;DHT22;848;48.354;10.064;2023-12-04T09:30:10;-5.10;99.90
1702;DHT22;848;48.354;10.064;2023-12-04T09:32:37;-5.20;99.90
1702;DHT22;848;48.354;10.064;2023-12-04T09:35:06;-5.10;99.90
1702;DHT22;848;48.354;10.064;2023-12-04T09:37:33;-5.10;99.90
1702;DHT22;848;48.354;10.064;2023-12-04T09:39:59;-5.10;99.90
1702;DHT22;848;48.354;10.064;2023-12-04T09:42:28;-5.10;99.90
1702;DHT22;848;48.354;10.064;2023-12-04T09:44:56;-5.10;99.90
1702;DHT22;848;48.354;10.064;2023-12-04T09:47:23;-4.60;99.90
1702;DHT22;848;48.354;10.064;2023-12-04T09:49:51;-5.10;99.90
1702;DHT22;848;48.354;10.064;2023-12-04T09:52:19;-5.10;99.90
1702;DHT22;848;48.354;10.064;2023-12-04T09:54:46;-5.00;99.90
1702;DHT22;848;48.354;10.064;2023-12-04T09:57:14;-4.90;99.90
1702;DHT22;848;48.354;10.064;2023-12-04T09:59:44;-4.80;99.90
1702;DHT22;848;48.354;10.064;2023-12-04T10:02:11;-4.70;99.90
1702;DHT22;848;48.354;10.064;2023-12-04T10:04:38;-4.60;99.90
1702;DHT22;848;48.354;10.064;2023-12-04T10:07:05;-4.40;99.90
1702;DHT22;848;48.354;10.064;2023-12-04T10:09:32;-4.50;99.90
1702;DHT22;848;48.354;10.064;2023-12-04T10:11:59;-4.50;99.90
1702;DHT22;848;48.354;10.064;2023-12-04T10:14:26;-4.50;99.90
1702;DHT22;848;48.354;10.064;2023-12-04T10:16:54;-4.40;99.90
1702;DHT22;848;48.354;10.064;2023-12-04T10:19:22;-4.30;99.90
1702;DHT22;848;48.354;10.064;2023-12-04T10:21:52;-4.20;99.90
1702;DHT22;848;48.354;10.064;2023-12-04T10:24:30;-3.90;99.90
1702;DHT22;848;48.354;10.064;2023-12-04T10:26:57;-3.30;99.90
1702;DHT22;848;48.354;10.064;2023-12-04T10:29:27;-2.70;99.90
1702;DHT22;848;48.354;10.064;2023-12-04T10:31:58;-2.50;99.90
1702;DHT22;848;48.354;10.064;2023-12-04T10:34:26;-2.20;99.90
1702;DHT22;848;48.354;10.064;2023-12-04T10:36:53;-2.00;99.90
1702;DHT22;848;48.354;10.064;2023-12-04T10:39:20;-2.00;99.90
1702;DHT22;848;48.354;10.064;2023-12-04T10:41:59;-2.00;99.90
1702;DHT22;848;48.354;10.064;2023-12-04T10:44:26;-2.10;99.90
1702;DHT22;848;48.354;10.064;2023-12-04T10:46:56;-2.30;99.90
1702;DHT22;848;48.354;10.064;2023-12-04T10:49:26;-2.50;99.90
1702;DHT22;848;48.354;10.064;2023-12-04T10:51:55;-2.50;99.90
1702;DHT22;848;48.354;10.064;2023-12-04T10:54:23;-2.60;99.90
1702;DHT22;848;48.354;10.064;2023-12-04T10:56:52;-2.60;99.90
1702;DHT22;848;48.354;10.064;2023-12-04T10:59:25;-2.40;99.90
1702;DHT22;848;48.354;10.064;2023-12-04T11:01:54;-2.40;99.90
1702;DHT22;848;48.354;10.064;2023-12-04T11:04:25;-2.10;99.90
1702;DHT22;848;48.354;10.064;2023-12-04T11:06:54;-2.00;99.90
1702;DHT22;848;48.354;10.064;2023-12-04T11:09:22;-2.10;99.90
1702;DHT22;848;48.354;10.064;2023-12-04T11:11:57;-2.50;99.90
1702;DHT22;848;48.354;10.064;2023-12-04T11:14:31;-2.60;99.90
1702;DHT22;848;48.354;10.064;2023-12-04T11:17:04;-2.70;99.90
1702;DHT22;848;48.354;10.064;2023-12-04T11:19:43;-2.70;99.90
1702;DHT22;848;48.354;10.064;2023-12-04T11:22:14;-2.40;99.90
1702;DHT22;848;48.354;10.064;2023-12-04T11:24:43;-2.40;99.90
1702;DHT22;848;48.354;10.064;2023-12-04T11:27:10;-2.40;99.90
1702;DHT22;848;48.354;10.064;2023-12-04T11:29:38;-2.70;99.90
1702;DHT22;848;48.354;10.064;2023-12-04T11:32:06;-2.90;99.90
1702;DHT22;848;48.354;10.064;2023-12-04T11:34:35;-3.00;99.90
1702;DHT22;848;48.354;10.064;2023-12-04T11:37:03;-3.10;99.90
1702;DHT22;848;48.354;10.064;2023-12-04T11:39:33;-3.10;99.90
1702;DHT22;848;48.354;10.064;2023-12-04T11:42:01;-3.30;99.90
1702;DHT22;848;48.354;10.064;2023-12-04T11:44:28;-3.40;99.90
1702;DHT22;848;48.354;10.064;2023-12-04T11:46:56;-3.50;99.90
1702;DHT22;848;48.354;10.064;2023-12-04T11:49:32;-3.30;99.90
1702;DHT22;848;48.354;10.064;2023-12-04T11:51:59;-3.20;99.90
1702;DHT22;848;48.354;10.064;2023-12-04T11:54:28;-3.20;99.90
1702;DHT22;848;48.354;10.064;2023-12-04T11:57:00;-3.20;99.90
1702;DHT22;848;48.354;10.064;2023-12-04T11:59:27;-3.10;99.90
1702;DHT22;848;48.354;10.064;2023-12-04T12:01:54;-3.10;99.90
1702;DHT22;848;48.354;10.064;2023-12-04T12:04:23;-3.10;99.90
1702;DHT22;848;48.354;10.064;2023-12-04T12:06:53;-3.00;99.90
1702;DHT22;848;48.354;10.064;2023-12-04T12:09:20;-3.10;99.90
1702;DHT22;848;48.354;10.064;2023-12-04T12:11:50;-3.20;99.90
1702;DHT22;848;48.354;10.064;2023-12-04T12:14:20;-3.10;99.90
1702;DHT22;848;48.354;10.064;2023-12-04T12:16:47;-3.00;99.90
1702;DHT22;848;48.354;10.064;2023-12-04T12:19:14;-2.90;99.90
1702;DHT22;848;48.354;10.064;2023-12-04T12:21:41;-2.80;99.90
1702;DHT22;848;48.354;10.064;2023-12-04T12:24:11;-2.60;99.90
1702;DHT22;848;48.354;10.064;2023-12-04T12:26:38;-2.30;99.90
1702;DHT22;848;48.354;10.064;2023-12-04T12:29:08;-2.20;99.90
1702;DHT22;848;48.354;10.064;2023-12-04T12:31:35;-2.10;99.90
1702;DHT22;848;48.354;10.064;2023-12-04T12:34:01;-2.10;99.90
1702;DHT22;848;48.354;10.064;2023-12-04T12:36:28;-2.30;99.90
1702;DHT22;848;48.354;10.064;2023-12-04T12:38:59;-2.70;99.90
1702;DHT22;848;48.354;10.064;2023-12-04T12:41:26;-2.80;99.90
1702;DHT22;848;48.354;10.064;2023-12-04T12:43:53;-2.80;99.90
1702;DHT22;848;48.354;10.064;2023-12-04T12:46:22;-2.80;99.90
1702;DHT22;848;48.354;10.064;2023-12-04T12:48:50;-2.90;99.90
1702;DHT22;848;48.354;10.064;2023-12-04T12:51:18;-2.90;99.90
1702;DHT22;848;48.354;10.064;2023-12-04T12:53:45;-2.90;99.90
1702;DHT22;848;48.354;10.064;2023-12-04T12:56:11;-2.80;99.90
1702;DHT22;848;48.354;10.064;2023-12-04T12:58:38;-2.80;99.90
1702;DHT22;848;48.354;10.064;2023-12-04T13:01:06;-2.60;99.90
1702;DHT22;848;48.354;10.064;2023-12-04T13:03:38;-2.60;99.90
1702;DHT22;848;48.354;10.064;2023-12-04T13:06:06;-2.70;99.90
1702;DHT22;848;48.354;10.064;2023-12-04T13:08:33;-2.90;99.90
1702;DHT22;848;48.354;10.064;2023-12-04T13:11:00;-3.00;99.90
1702;DHT22;848;48.354;10.064;2023-12-04T13:13:27;-3.00;99.90
1702;DHT22;848;48.354;10.064;2023-12-04T13:15:54;-2.90;99.90
1702;DHT22;848;48.354;10.064;2023-12-04T13:18:21;-2.80;99.90
1702;DHT22;848;48.354;10.064;2023-12-04T13:20:49;-2.80;99.90
1702;DHT22;848;48.354;10.064;2023-12-04T13:23:16;-2.70;99.90
1702;DHT22;848;48.354;10.064;2023-12-04T13:25:43;-2.80;99.90
1702;DHT22;848;48.354;10.064;2023-12-04T13:28:10;-2.90;99.90
1702;DHT22;848;48.354;10.064;2023-12-04T13:30:39;-2.90;99.90
1702;DHT22;848;48.354;10.064;2023-12-04T13:33:05;-2.90;99.90
1702;DHT22;848;48.354;10.064;2023-12-04T13:35:33;-2.90;99.90
1702;DHT22;848;48.354;10.064;2023-12-04T13:38:05;-2.80;99.90
1702;DHT22;848;48.354;10.064;2023-12-04T13:40:38;-2.80;99.90
1702;DHT22;848;48.354;10.064;2023-12-04T13:43:05;-2.80;99.90
1702;DHT22;848;48.354;10.064;2023-12-04T13:45:49;-2.70;99.90
1702;DHT22;848;48.354;10.064;2023-12-04T13:48:17;-2.50;99.90
1702;DHT22;848;48.354;10.064;2023-12-04T13:50:46;-2.30;99.90
1702;DHT22;848;48.354;10.064;2023-12-04T13:53:17;-2.20;99.90
1702;DHT22;848;48.354;10.064;2023-12-04T13:55:50;-2.00;99.90
1702;DHT22;848;48.354;10.064;2023-12-04T13:58:37;-1.90;99.90
1702;DHT22;848;48.354;10.064;2023-12-04T14:01:08;-2.00;99.90
1702;DHT22;848;48.354;10.064;2023-12-04T14:03:39;-2.20;99.90
1702;DHT22;848;48.354;10.064;2023-12-04T14:06:07;-2.00;99.90
1702;DHT22;848;48.354;10.064;2023-12-04T14:08:35;-2.20;99.90
1702;DHT22;848;48.354;10.064;2023-12-04T14:11:03;-2.10;99.90
1702;DHT22;848;48.354;10.064;2023-12-04T14:13:31;-2.10;99.90
1702;DHT22;848;48.354;10.064;2023-12-04T14:15:58;-2.00;99.90
1702;DHT22;848;48.354;10.064;2023-12-04T14:18:25;-2.10;99.90
1702;DHT22;848;48.354;10.064;2023-12-04T14:20:52;-2.10;99.90
1702;DHT22;848;48.354;10.064;2023-12-04T14:23:19;-2.20;99.90
1702;DHT22;848;48.354;10.064;2023-12-04T14:25:47;-2.30;99.90
1702;DHT22;848;48.354;10.064;2023-12-04T14:28:14;-2.30;99.90
1702;DHT22;848;48.354;10.064;2023-12-04T14:30:41;-2.30;99.90
1702;DHT22;848;48.354;10.064;2023-12-04T14:33:08;-2.40;99.90
1702;DHT22;848;48.354;10.064;2023-12-04T14:35:35;-2.40;99.90
1702;DHT22;848;48.354;10.064;2023-12-04T14:38:03;-2.40;99.90
1702;DHT22;848;48.354;10.064;2023-12-04T14:40:30;-2.30;99.90
1702;DHT22;848;48.354;10.064;2023-12-04T14:42:59;-2.30;99.90
1702;DHT22;848;48.354;10.064;2023-12-04T14:45:26;-2.40;99.90
1702;DHT22;848;48.354;10.064;2023-12-04T14:47:52;-2.40;99.90
1702;DHT22;848;48.354;10.064;2023-12-04T14:50:22;-2.40;99.90
1702;DHT22;848;48.354;10.064;2023-12-04T14:52:51;-2.30;99.90
1702;DHT22;848;48.354;10.064;2023-12-04T14:55:20;-2.30;99.90
1702;DHT22;848;48.354;10.064;2023-12-04T14:58:20;-2.40;99.90
1702;DHT22;848;48.354;10.064;2023-12-04T15:01:14;-2.40;99.90
1702;DHT22;848;48.354;10.064;2023-12-04T15:03:59;-2.50;99.90
1702;DHT22;848;48.354;10.064;2023-12-04T15:06:53;-2.40;99.90
1702;DHT22;848;48.354;10.064;2023-12-04T15:09:54;-2.20;99.90
1702;DHT22;848;48.354;10.064;2023-12-04T15:12:51;-2.10;99.90
1702;DHT22;848;48.354;10.064;2023-12-04T15:15:54;-1.90;99.90
1702;DHT22;848;48.354;10.064;2023-12-04T15:18:46;-2.00;99.90
1702;DHT22;848;48.354;10.064;2023-12-04T15:21:40;-1.90;99.90
1702;DHT22;848;48.354;10.064;2023-12-04T15:24:07;-1.90;99.90
1702;DHT22;848;48.354;10.064;2023-12-04T15:26:34;-2.10;99.90
1702;DHT22;848;48.354;10.064;2023-12-04T15:29:00;-2.20;99.90
1702;DHT22;848;48.354;10.064;2023-12-04T15:31:30;-2.10;99.90
1702;DHT22;848;48.354;10.064;2023-12-04T15:33:56;-2.00;99.90
1702;DHT22;848;48.354;10.064;2023-12-04T15:36:22;-2.00;99.90
1702;DHT22;848;48.354;10.064;2023-12-04T15:38:48;-2.10;99.90
1702;DHT22;848;48.354;10.064;2023-12-04T15:41:17;-2.10;99.90
1702;DHT22;848;48.354;10.064;2023-12-04T15:43:45;-2.00;99.90
1702;DHT22;848;48.354;10.064;2023-12-04T15:46:14;-1.90;99.90
1702;DHT22;848;48.354;10.064;2023-12-04T15:48:42;-1.90;99.90
1702;DHT22;848;48.354;10.064;2023-12-04T15:51:08;-2.00;99.90
1702;DHT22;848;48.354;10.064;2023-12-04T15:53:36;-2.00;99.90
1702;DHT22;848;48.354;10.064;2023-12-04T15:56:02;-2.00;99.90
1702;DHT22;848;48.354;10.064;2023-12-04T15:58:32;-2.00;99.90
1702;DHT22;848;48.354;10.064;2023-12-04T16:00:58;-2.20;99.90
1702;DHT22;848;48.354;10.064;2023-12-04T16:03:25;-2.40;99.90
1702;DHT22;848;48.354;10.064;2023-12-04T16:05:52;-2.30;99.90
1702;DHT22;848;48.354;10.064;2023-12-04T16:08:19;-2.30;99.90
1702;DHT22;848;48.354;10.064;2023-12-04T16:10:45;-2.20;99.90